sensor_id;sensor_type;location;lat;lon;timestamp;P1;durP1;ratioP1;P2;durP2;ratioP2
19280;SDS011;9774;52.034;5.342;2023-05-19T00:01:28;4.20;;;1.83;;
19280;SDS011;9774;52.034;5.342;2023-05-19T00:03:56;1.92;;;1.60;;
19280;SDS011;9774;52.034;5.342;2023-05-19T00:06:26;5.25;;;2.20;;
19280;SDS011;9774;52.034;5.342;2023-05-19T00:08:56;3.55;;;1.85;;
19280;SDS011;9774;52.034;5.342;2023-05-19T00:11:24;4.45;;;1.85;;
19280;SDS011;9774;52.034;5.342;2023-05-19T00:13:53;4.47;;;2.25;;
19280;SDS011;9774;52.034;5.342;2023-05-19T00:16:23;3.58;;;1.98;;
19280;SDS011;9774;52.034;5.342;2023-05-19T00:18:52;4.57;;;1.85;;
19280;SDS011;9774;52.034;5.342;2023-05-19T00:21:21;4.43;;;1.75;;
19280;SDS011;9774;52.034;5.342;2023-05-19T00:23:48;4.63;;;1.92;;
19280;SDS011;9774;52.034;5.342;2023-05-19T00:26:15;4.88;;;2.53;;
19280;SDS011;9774;52.034;5.342;2023-05-19T00:28:43;5.65;;;2.05;;
19280;SDS011;9774;52.034;5.342;2023-05-19T00:31:10;3.75;;;2.15;;
19280;SDS011;9774;52.034;5.342;2023-05-19T00:33:38;4.93;;;2.05;;
19280;SDS011;9774;52.034;5.342;2023-05-19T00:36:06;6.30;;;1.88;;
19280;SDS011;9774;52.034;5.342;2023-05-19T00:38:34;2.97;;;1.88;;
19280;SDS011;9774;52.034;5.342;2023-05-19T00:41:03;3.90;;;2.30;;
19280;SDS011;9774;52.034;5.342;2023-05-19T00:43:31;4.13;;;2.17;;
19280;SDS011;9774;52.034;5.342;2023-05-19T00:45:59;2.95;;;1.55;;
19280;SDS011;9774;52.034;5.342;2023-05-19T00:48:27;3.33;;;1.92;;
19280;SDS011;9774;52.034;5.342;2023-05-19T00:50:56;4.28;;;1.92;;
19280;SDS011;9774;52.034;5.342;2023-05-19T00:53:28;5.90;;;2.63;;
19280;SDS011;9774;52.034;5.342;2023-05-19T00:55:56;4.00;;;1.92;;
19280;SDS011;9774;52.034;5.342;2023-05-19T00:58:24;4.43;;;2.38;;
19280;SDS011;9774;52.034;5.342;2023-05-19T01:00:54;5.53;;;2.28;;
19280;SDS011;9774;52.034;5.342;2023-05-19T01:03:27;5.38;;;2.28;;
19280;SDS011;9774;52.034;5.342;2023-05-19T01:05:57;3.78;;;2.33;;
19280;SDS011;9774;52.034;5.342;2023-05-19T01:08:28;2.53;;;1.98;;
19280;SDS011;9774;52.034;5.342;2023-05-19T01:10:56;6.13;;;2.45;;
19280;SDS011;9774;52.034;5.342;2023-05-19T01:13:24;3.45;;;2.08;;
19280;SDS011;9774;52.034;5.342;2023-05-19T01:15:56;2.58;;;1.70;;
19280;SDS011;9774;52.034;5.342;2023-05-19T01:18:35;5.22;;;2.35;;
19280;SDS011;9774;52.034;5.342;2023-05-19T01:21:16;3.88;;;2.17;;
19280;SDS011;9774;52.034;5.342;2023-05-19T01:24:01;4.63;;;2.20;;
19280;SDS011;9774;52.034;5.342;2023-05-19T01:26:44;4.88;;;1.90;;
19280;SDS011;9774;52.034;5.342;2023-05-19T01:29:35;7.13;;;2.42;;
19280;SDS011;9774;52.034;5.342;2023-05-19T01:32:08;5.38;;;2.92;;
19280;SDS011;9774;52.034;5.342;2023-05-19T01:34:41;4.45;;;2.30;;
19280;SDS011;9774;52.034;5.342;2023-05-19T01:37:11;3.65;;;2.42;;
19280;SDS011;9774;52.034;5.342;2023-05-19T01:39:39;8.48;;;2.70;;
19280;SDS011;9774;52.034;5.342;2023-05-19T01:42:09;4.68;;;2.67;;
19280;SDS011;9774;52.034;5.342;2023-05-19T01:44:37;4.07;;;2.42;;
19280;SDS011;9774;52.034;5.342;2023-05-19T01:47:05;4.15;;;2.30;;
19280;SDS011;9774;52.034;5.342;2023-05-19T01:49:35;4.28;;;2.35;;
19280;SDS011;9774;52.034;5.342;2023-05-19T01:52:02;4.40;;;2.17;;
19280;SDS011;9774;52.034;5.342;2023-05-19T01:54:30;3.03;;;1.98;;
19280;SDS011;9774;52.034;5.342;2023-05-19T01:56:59;3.78;;;2.47;;
19280;SDS011;9774;52.034;5.342;2023-05-19T01:59:35;6.15;;;2.58;;
19280;SDS011;9774;52.034;5.342;2023-05-19T02:02:14;5.10;;;2.70;;
19280;SDS011;9774;52.034;5.342;2023-05-19T02:04:54;5.10;;;2.08;;
19280;SDS011;9774;52.034;5.342;2023-05-19T02:07:25;2.97;;;2.38;;
19280;SDS011;9774;52.034;5.342;2023-05-19T02:10:03;3.60;;;1.83;;
19280;SDS011;9774;52.034;5.342;2023-05-19T02:12:33;2.58;;;2.05;;
19280;SDS011;9774;52.034;5.342;2023-05-19T02:15:05;4.18;;;2.67;;
19280;SDS011;9774;52.034;5.342;2023-05-19T02:17:37;3.63;;;2.42;;
19280;SDS011;9774;52.034;5.342;2023-05-19T02:20:10;5.05;;;2.58;;
19280;SDS011;9774;52.034;5.342;2023-05-19T02:22:37;3.55;;;2.30;;
19280;SDS011;9774;52.034;5.342;2023-05-19T02:25:05;4.15;;;2.20;;
19280;SDS011;9774;52.034;5.342;2023-05-19T02:27:33;6.10;;;2.38;;
19280;SDS011;9774;52.034;5.342;2023-05-19T02:30:01;5.28;;;1.95;;
19280;SDS011;9774;52.034;5.342;2023-05-19T02:32:28;4.00;;;2.20;;
19280;SDS011;9774;52.034;5.342;2023-05-19T02:34:56;6.30;;;2.55;;
19280;SDS011;9774;52.034;5.342;2023-05-19T02:37:25;4.45;;;2.63;;
19280;SDS011;9774;52.034;5.342;2023-05-19T02:39:53;5.03;;;2.40;;
19280;SDS011;9774;52.034;5.342;2023-05-19T02:42:20;4.35;;;2.40;;
19280;SDS011;9774;52.034;5.342;2023-05-19T02:44:48;4.20;;;2.50;;
19280;SDS011;9774;52.034;5.342;2023-05-19T02:47:15;8.73;;;2.45;;
19280;SDS011;9774;52.034;5.342;2023-05-19T02:49:42;5.35;;;2.67;;
19280;SDS011;9774;52.034;5.342;2023-05-19T02:52:10;3.42;;;2.65;;
19280;SDS011;9774;52.034;5.342;2023-05-19T02:54:38;3.67;;;2.45;;
19280;SDS011;9774;52.034;5.342;2023-05-19T02:57:06;5.93;;;2.63;;
19280;SDS011;9774;52.034;5.342;2023-05-19T02:59:33;5.78;;;3.38;;
19280;SDS011;9774;52.034;5.342;2023-05-19T03:02:01;5.97;;;2.58;;
19280;SDS011;9774;52.034;5.342;2023-05-19T03:04:28;6.40;;;2.80;;
19280;SDS011;9774;52.034;5.342;2023-05-19T03:06:55;7.65;;;3.20;;
19280;SDS011;9774;52.034;5.342;2023-05-19T03:09:23;4.70;;;2.78;;
19280;SDS011;9774;52.034;5.342;2023-05-19T03:11:51;8.00;;;2.90;;
19280;SDS011;9774;52.034;5.342;2023-05-19T03:14:19;5.45;;;2.63;;
19280;SDS011;9774;52.034;5.342;2023-05-19T03:16:47;4.68;;;2.78;;
19280;SDS011;9774;52.034;5.342;2023-05-19T03:19:15;5.05;;;2.72;;
19280;SDS011;9774;52.034;5.342;2023-05-19T03:21:42;3.90;;;2.20;;
19280;SDS011;9774;52.034;5.342;2023-05-19T03:24:09;7.72;;;3.03;;
19280;SDS011;9774;52.034;5.342;2023-05-19T03:26:36;7.55;;;3.70;;
19280;SDS011;9774;52.034;5.342;2023-05-19T03:29:05;3.30;;;2.63;;
19280;SDS011;9774;52.034;5.342;2023-05-19T03:31:32;5.70;;;2.67;;
19280;SDS011;9774;52.034;5.342;2023-05-19T03:34:00;5.75;;;2.70;;
19280;SDS011;9774;52.034;5.342;2023-05-19T03:36:27;5.50;;;2.85;;
19280;SDS011;9774;52.034;5.342;2023-05-19T03:38:56;5.25;;;3.35;;
19280;SDS011;9774;52.034;5.342;2023-05-19T03:41:24;4.15;;;2.97;;
19280;SDS011;9774;52.034;5.342;2023-05-19T03:43:51;3.72;;;2.50;;
19280;SDS011;9774;52.034;5.342;2023-05-19T03:46:19;6.13;;;3.28;;
19280;SDS011;9774;52.034;5.342;2023-05-19T03:48:47;3.92;;;2.85;;
19280;SDS011;9774;52.034;5.342;2023-05-19T03:51:14;8.75;;;2.88;;
19280;SDS011;9774;52.034;5.342;2023-05-19T03:53:41;5.45;;;2.85;;
19280;SDS011;9774;52.034;5.342;2023-05-19T03:56:09;4.75;;;2.80;;
19280;SDS011;9774;52.034;5.342;2023-05-19T03:58:37;9.00;;;3.00;;
19280;SDS011;9774;52.034;5.342;2023-05-19T04:01:07;4.25;;;2.75;;
19280;SDS011;9774;52.034;5.342;2023-05-19T04:03:37;5.15;;;3.17;;
19280;SDS011;9774;52.034;5.342;2023-05-19T04:06:04;4.03;;;2.72;;
19280;SDS011;9774;52.034;5.342;2023-05-19T04:08:32;4.10;;;2.70;;
19280;SDS011;9774;52.034;5.342;2023-05-19T04:10:59;5.53;;;2.53;;
19280;SDS011;9774;52.034;5.342;2023-05-19T04:13:26;4.18;;;2.60;;
19280;SDS011;9774;52.034;5.342;2023-05-19T04:15:54;7.32;;;2.75;;
19280;SDS011;9774;52.034;5.342;2023-05-19T04:18:21;5.32;;;2.90;;
19280;SDS011;9774;52.034;5.342;2023-05-19T04:20:50;7.32;;;3.13;;
19280;SDS011;9774;52.034;5.342;2023-05-19T04:23:17;8.77;;;3.50;;
19280;SDS011;9774;52.034;5.342;2023-05-19T04:25:44;3.13;;;2.50;;
19280;SDS011;9774;52.034;5.342;2023-05-19T04:28:12;7.90;;;3.53;;
19280;SDS011;9774;52.034;5.342;2023-05-19T04:30:40;6.18;;;3.28;;
19280;SDS011;9774;52.034;5.342;2023-05-19T04:33:10;6.00;;;2.97;;
19280;SDS011;9774;52.034;5.342;2023-05-19T04:35:38;5.40;;;3.30;;
19280;SDS011;9774;52.034;5.342;2023-05-19T04:38:06;4.10;;;2.70;;
19280;SDS011;9774;52.034;5.342;2023-05-19T04:40:34;4.10;;;3.22;;
19280;SDS011;9774;52.034;5.342;2023-05-19T04:43:01;5.55;;;3.17;;
19280;SDS011;9774;52.034;5.342;2023-05-19T04:45:28;6.43;;;3.60;;
19280;SDS011;9774;52.034;5.342;2023-05-19T04:47:57;5.30;;;2.95;;
19280;SDS011;9774;52.034;5.342;2023-05-19T04:50:24;5.80;;;3.50;;
19280;SDS011;9774;52.034;5.342;2023-05-19T04:52:53;6.78;;;3.13;;
19280;SDS011;9774;52.034;5.342;2023-05-19T04:55:24;6.95;;;3.50;;
19280;SDS011;9774;52.034;5.342;2023-05-19T04:57:51;4.32;;;2.72;;
19280;SDS011;9774;52.034;5.342;2023-05-19T05:00:19;3.65;;;2.88;;
19280;SDS011;9774;52.034;5.342;2023-05-19T05:02:46;6.60;;;3.58;;
19280;SDS011;9774;52.034;5.342;2023-05-19T05:05:14;4.05;;;3.13;;
19280;SDS011;9774;52.034;5.342;2023-05-19T05:07:42;4.25;;;3.20;;
19280;SDS011;9774;52.034;5.342;2023-05-19T05:10:10;5.25;;;2.78;;
19280;SDS011;9774;52.034;5.342;2023-05-19T05:12:38;4.53;;;3.15;;
19280;SDS011;9774;52.034;5.342;2023-05-19T05:15:07;9.90;;;3.60;;
19280;SDS011;9774;52.034;5.342;2023-05-19T05:17:35;6.95;;;3.20;;
19280;SDS011;9774;52.034;5.342;2023-05-19T05:20:03;4.10;;;2.72;;
19280;SDS011;9774;52.034;5.342;2023-05-19T05:22:32;5.70;;;3.15;;
19280;SDS011;9774;52.034;5.342;2023-05-19T05:25:00;5.78;;;3.10;;
19280;SDS011;9774;52.034;5.342;2023-05-19T05:27:27;5.15;;;3.20;;
19280;SDS011;9774;52.034;5.342;2023-05-19T05:29:56;5.13;;;3.13;;
19280;SDS011;9774;52.034;5.342;2023-05-19T05:32:23;3.65;;;2.88;;
19280;SDS011;9774;52.034;5.342;2023-05-19T05:34:51;6.13;;;2.83;;
19280;SDS011;9774;52.034;5.342;2023-05-19T05:37:18;6.93;;;3.28;;
19280;SDS011;9774;52.034;5.342;2023-05-19T05:39:45;4.03;;;3.00;;
19280;SDS011;9774;52.034;5.342;2023-05-19T05:42:13;7.75;;;3.65;;
19280;SDS011;9774;52.034;5.342;2023-05-19T05:44:40;4.07;;;3.20;;
19280;SDS011;9774;52.034;5.342;2023-05-19T05:47:09;4.35;;;3.05;;
19280;SDS011;9774;52.034;5.342;2023-05-19T05:49:38;6.57;;;3.55;;
19280;SDS011;9774;52.034;5.342;2023-05-19T05:52:07;3.95;;;3.13;;
19280;SDS011;9774;52.034;5.342;2023-05-19T05:54:36;6.45;;;3.58;;
19280;SDS011;9774;52.034;5.342;2023-05-19T05:57:04;8.07;;;3.30;;
19280;SDS011;9774;52.034;5.342;2023-05-19T05:59:32;5.65;;;2.90;;
19280;SDS011;9774;52.034;5.342;2023-05-19T06:01:59;4.95;;;3.10;;
19280;SDS011;9774;52.034;5.342;2023-05-19T06:04:28;8.25;;;3.00;;
19280;SDS011;9774;52.034;5.342;2023-05-19T06:06:55;4.18;;;3.20;;
19280;SDS011;9774;52.034;5.342;2023-05-19T06:09:25;6.78;;;3.70;;
19280;SDS011;9774;52.034;5.342;2023-05-19T06:11:54;5.57;;;3.35;;
19280;SDS011;9774;52.034;5.342;2023-05-19T06:14:23;7.13;;;3.58;;
19280;SDS011;9774;52.034;5.342;2023-05-19T06:16:50;6.35;;;3.08;;
19280;SDS011;9774;52.034;5.342;2023-05-19T06:19:17;6.70;;;2.80;;
19280;SDS011;9774;52.034;5.342;2023-05-19T06:21:46;3.63;;;2.60;;
19280;SDS011;9774;52.034;5.342;2023-05-19T06:24:13;6.85;;;2.90;;
19280;SDS011;9774;52.034;5.342;2023-05-19T06:26:41;5.00;;;3.17;;
19280;SDS011;9774;52.034;5.342;2023-05-19T06:29:08;6.63;;;2.70;;
19280;SDS011;9774;52.034;5.342;2023-05-19T06:31:35;7.72;;;2.90;;
19280;SDS011;9774;52.034;5.342;2023-05-19T06:34:02;6.13;;;3.20;;
19280;SDS011;9774;52.034;5.342;2023-05-19T06:36:30;4.13;;;2.80;;
19280;SDS011;9774;52.034;5.342;2023-05-19T06:39:00;8.20;;;3.35;;
19280;SDS011;9774;52.034;5.342;2023-05-19T06:41:27;4.88;;;2.40;;
19280;SDS011;9774;52.034;5.342;2023-05-19T06:43:55;5.03;;;2.53;;
19280;SDS011;9774;52.034;5.342;2023-05-19T06:46:22;5.72;;;2.90;;
19280;SDS011;9774;52.034;5.342;2023-05-19T06:48:49;4.63;;;2.95;;
19280;SDS011;9774;52.034;5.342;2023-05-19T06:51:17;7.25;;;3.53;;
19280;SDS011;9774;52.034;5.342;2023-05-19T06:53:47;4.97;;;2.47;;
19280;SDS011;9774;52.034;5.342;2023-05-19T06:56:15;5.25;;;3.00;;
19280;SDS011;9774;52.034;5.342;2023-05-19T06:58:43;3.25;;;2.42;;
19280;SDS011;9774;52.034;5.342;2023-05-19T07:01:11;6.30;;;2.65;;
19280;SDS011;9774;52.034;5.342;2023-05-19T07:03:38;4.65;;;2.30;;
19280;SDS011;9774;52.034;5.342;2023-05-19T07:06:05;6.47;;;2.47;;
19280;SDS011;9774;52.034;5.342;2023-05-19T07:08:33;4.63;;;2.67;;
19280;SDS011;9774;52.034;5.342;2023-05-19T07:11:01;8.48;;;2.70;;
19280;SDS011;9774;52.034;5.342;2023-05-19T07:13:29;5.07;;;2.58;;
19280;SDS011;9774;52.034;5.342;2023-05-19T07:15:57;4.13;;;2.15;;
19280;SDS011;9774;52.034;5.342;2023-05-19T07:18:24;3.25;;;2.60;;
19280;SDS011;9774;52.034;5.342;2023-05-19T07:20:55;5.63;;;2.60;;
19280;SDS011;9774;52.034;5.342;2023-05-19T07:23:23;5.85;;;3.30;;
19280;SDS011;9774;52.034;5.342;2023-05-19T07:25:52;4.35;;;2.83;;
19280;SDS011;9774;52.034;5.342;2023-05-19T07:28:21;5.38;;;2.60;;
19280;SDS011;9774;52.034;5.342;2023-05-19T07:30:49;4.05;;;2.70;;
19280;SDS011;9774;52.034;5.342;2023-05-19T07:33:17;5.47;;;2.45;;
19280;SDS011;9774;52.034;5.342;2023-05-19T07:35:44;4.63;;;2.60;;
19280;SDS011;9774;52.034;5.342;2023-05-19T07:38:11;7.28;;;2.78;;
19280;SDS011;9774;52.034;5.342;2023-05-19T07:40:39;4.07;;;2.70;;
19280;SDS011;9774;52.034;5.342;2023-05-19T07:43:06;8.50;;;2.92;;
19280;SDS011;9774;52.034;5.342;2023-05-19T07:45:33;5.15;;;2.50;;
19280;SDS011;9774;52.034;5.342;2023-05-19T07:48:02;4.88;;;2.60;;
19280;SDS011;9774;52.034;5.342;2023-05-19T07:50:29;4.50;;;2.85;;
19280;SDS011;9774;52.034;5.342;2023-05-19T07:52:57;4.03;;;2.70;;
19280;SDS011;9774;52.034;5.342;2023-05-19T07:55:24;6.75;;;3.03;;
19280;SDS011;9774;52.034;5.342;2023-05-19T07:57:51;5.85;;;2.63;;
19280;SDS011;9774;52.034;5.342;2023-05-19T08:00:19;5.78;;;3.25;;
19280;SDS011;9774;52.034;5.342;2023-05-19T08:02:46;4.30;;;2.45;;
19280;SDS011;9774;52.034;5.342;2023-05-19T08:05:15;11.32;;;2.65;;
19280;SDS011;9774;52.034;5.342;2023-05-19T08:07:42;2.53;;;2.00;;
19280;SDS011;9774;52.034;5.342;2023-05-19T08:10:12;5.70;;;2.58;;
19280;SDS011;9774;52.034;5.342;2023-05-19T08:12:39;3.00;;;1.92;;
19280;SDS011;9774;52.034;5.342;2023-05-19T08:15:11;2.33;;;1.95;;
19280;SDS011;9774;52.034;5.342;2023-05-19T08:17:38;4.05;;;2.03;;
19280;SDS011;9774;52.034;5.342;2023-05-19T08:20:06;4.30;;;2.10;;
19280;SDS011;9774;52.034;5.342;2023-05-19T08:22:35;5.00;;;2.05;;
19280;SDS011;9774;52.034;5.342;2023-05-19T08:25:03;3.45;;;2.05;;
19280;SDS011;9774;52.034;5.342;2023-05-19T08:27:31;4.03;;;2.10;;
19280;SDS011;9774;52.034;5.342;2023-05-19T08:29:59;5.68;;;2.17;;
19280;SDS011;9774;52.034;5.342;2023-05-19T08:32:26;4.70;;;2.10;;
19280;SDS011;9774;52.034;5.342;2023-05-19T08:34:53;2.78;;;1.80;;
19280;SDS011;9774;52.034;5.342;2023-05-19T08:37:21;6.40;;;2.47;;
19280;SDS011;9774;52.034;5.342;2023-05-19T08:39:49;3.35;;;1.88;;
19280;SDS011;9774;52.034;5.342;2023-05-19T08:42:19;3.90;;;1.95;;
19280;SDS011;9774;52.034;5.342;2023-05-19T08:44:46;1.80;;;1.45;;
19280;SDS011;9774;52.034;5.342;2023-05-19T08:47:13;3.88;;;1.55;;
19280;SDS011;9774;52.034;5.342;2023-05-19T08:49:43;3.58;;;1.90;;
19280;SDS011;9774;52.034;5.342;2023-05-19T08:52:14;4.05;;;1.40;;
19280;SDS011;9774;52.034;5.342;2023-05-19T08:54:51;4.03;;;1.65;;
19280;SDS011;9774;52.034;5.342;2023-05-19T08:57:25;2.75;;;1.88;;
19280;SDS011;9774;52.034;5.342;2023-05-19T08:59:53;2.38;;;1.48;;
19280;SDS011;9774;52.034;5.342;2023-05-19T09:02:21;1.63;;;1.10;;
19280;SDS011;9774;52.034;5.342;2023-05-19T09:04:49;2.15;;;1.38;;
19280;SDS011;9774;52.034;5.342;2023-05-19T09:07:16;4.60;;;2.00;;
19280;SDS011;9774;52.034;5.342;2023-05-19T09:09:45;3.22;;;1.17;;
19280;SDS011;9774;52.034;5.342;2023-05-19T09:12:13;2.60;;;1.20;;
19280;SDS011;9774;52.034;5.342;2023-05-19T09:14:41;1.60;;;0.90;;
19280;SDS011;9774;52.034;5.342;2023-05-19T09:17:08;3.50;;;1.40;;
19280;SDS011;9774;52.034;5.342;2023-05-19T09:19:41;2.67;;;1.00;;
19280;SDS011;9774;52.034;5.342;2023-05-19T09:22:08;2.80;;;1.00;;
19280;SDS011;9774;52.034;5.342;2023-05-19T09:24:36;1.83;;;1.00;;
19280;SDS011;9774;52.034;5.342;2023-05-19T09:27:05;3.38;;;1.10;;
19280;SDS011;9774;52.034;5.342;2023-05-19T09:29:34;1.65;;;0.80;;
19280;SDS011;9774;52.034;5.342;2023-05-19T09:32:01;4.78;;;1.17;;
19280;SDS011;9774;52.034;5.342;2023-05-19T09:34:29;7.95;;;1.50;;
19280;SDS011;9774;52.034;5.342;2023-05-19T09:36:57;2.85;;;1.38;;
19280;SDS011;9774;52.034;5.342;2023-05-19T09:39:24;2.58;;;1.15;;
19280;SDS011;9774;52.034;5.342;2023-05-19T09:41:53;3.42;;;1.30;;
19280;SDS011;9774;52.034;5.342;2023-05-19T09:44:22;1.08;;;0.80;;
19280;SDS011;9774;52.034;5.342;2023-05-19T09:46:54;5.40;;;1.20;;
19280;SDS011;9774;52.034;5.342;2023-05-19T09:49:24;1.13;;;0.60;;
19280;SDS011;9774;52.034;5.342;2023-05-19T09:51:53;2.97;;;1.20;;
19280;SDS011;9774;52.034;5.342;2023-05-19T09:54:21;1.92;;;1.10;;
19280;SDS011;9774;52.034;5.342;2023-05-19T09:56:50;3.72;;;1.38;;
19280;SDS011;9774;52.034;5.342;2023-05-19T09:59:22;1.40;;;1.00;;
19280;SDS011;9774;52.034;5.342;2023-05-19T10:01:51;2.70;;;1.27;;
19280;SDS011;9774;52.034;5.342;2023-05-19T10:04:22;3.38;;;1.15;;
19280;SDS011;9774;52.034;5.342;2023-05-19T10:06:50;4.28;;;1.40;;
19280;SDS011;9774;52.034;5.342;2023-05-19T10:09:19;4.03;;;1.60;;
19280;SDS011;9774;52.034;5.342;2023-05-19T10:11:50;3.13;;;1.05;;
19280;SDS011;9774;52.034;5.342;2023-05-19T10:14:18;2.38;;;1.10;;
19280;SDS011;9774;52.034;5.342;2023-05-19T10:16:48;4.30;;;1.38;;
19280;SDS011;9774;52.034;5.342;2023-05-19T10:19:19;5.72;;;1.38;;
19280;SDS011;9774;52.034;5.342;2023-05-19T10:21:48;5.18;;;1.70;;
19280;SDS011;9774;52.034;5.342;2023-05-19T10:24:16;2.25;;;1.20;;
19280;SDS011;9774;52.034;5.342;2023-05-19T10:26:44;1.85;;;1.00;;
19280;SDS011;9774;52.034;5.342;2023-05-19T10:29:15;1.95;;;0.93;;
19280;SDS011;9774;52.034;5.342;2023-05-19T10:31:46;3.55;;;1.38;;
19280;SDS011;9774;52.034;5.342;2023-05-19T10:34:35;3.10;;;1.10;;
19280;SDS011;9774;52.034;5.342;2023-05-19T10:37:25;2.15;;;1.00;;
19280;SDS011;9774;52.034;5.342;2023-05-19T10:39:59;2.42;;;1.10;;
19280;SDS011;9774;52.034;5.342;2023-05-19T10:42:35;3.70;;;1.63;;
19280;SDS011;9774;52.034;5.342;2023-05-19T10:45:12;3.63;;;1.40;;
19280;SDS011;9774;52.034;5.342;2023-05-19T10:47:42;2.08;;;1.05;;
19280;SDS011;9774;52.034;5.342;2023-05-19T10:50:11;4.22;;;1.50;;
19280;SDS011;9774;52.034;5.342;2023-05-19T10:52:39;2.10;;;1.25;;
19280;SDS011;9774;52.034;5.342;2023-05-19T10:55:06;5.72;;;1.55;;
19280;SDS011;9774;52.034;5.342;2023-05-19T10:57:39;1.65;;;1.10;;
19280;SDS011;9774;52.034;5.342;2023-05-19T11:00:29;2.00;;;1.40;;
19280;SDS011;9774;52.034;5.342;2023-05-19T11:03:10;2.70;;;1.38;;
19280;SDS011;9774;52.034;5.342;2023-05-19T11:05:40;2.53;;;1.30;;
19280;SDS011;9774;52.034;5.342;2023-05-19T11:08:10;3.30;;;1.30;;
19280;SDS011;9774;52.034;5.342;2023-05-19T11:10:37;2.10;;;1.08;;
19280;SDS011;9774;52.034;5.342;2023-05-19T11:13:08;2.28;;;1.00;;
19280;SDS011;9774;52.034;5.342;2023-05-19T11:15:45;1.63;;;1.35;;
19280;SDS011;9774;52.034;5.342;2023-05-19T11:18:13;2.58;;;1.30;;
19280;SDS011;9774;52.034;5.342;2023-05-19T11:20:42;2.55;;;1.15;;
19280;SDS011;9774;52.034;5.342;2023-05-19T11:23:21;5.63;;;1.10;;
19280;SDS011;9774;52.034;5.342;2023-05-19T11:25:51;3.42;;;1.13;;
19280;SDS011;9774;52.034;5.342;2023-05-19T11:28:19;3.97;;;1.70;;
19280;SDS011;9774;52.034;5.342;2023-05-19T11:30:50;4.03;;;1.25;;
19280;SDS011;9774;52.034;5.342;2023-05-19T11:33:19;2.17;;;1.15;;
19280;SDS011;9774;52.034;5.342;2023-05-19T11:35:53;3.42;;;1.60;;
19280;SDS011;9774;52.034;5.342;2023-05-19T11:38:22;2.70;;;1.48;;
19280;SDS011;9774;52.034;5.342;2023-05-19T11:40:51;3.08;;;1.45;;
19280;SDS011;9774;52.034;5.342;2023-05-19T11:43:21;2.13;;;1.30;;
19280;SDS011;9774;52.034;5.342;2023-05-19T11:45:48;3.80;;;1.40;;
19280;SDS011;9774;52.034;5.342;2023-05-19T11:48:16;2.67;;;1.05;;
19280;SDS011;9774;52.034;5.342;2023-05-19T11:50:46;2.85;;;1.38;;
19280;SDS011;9774;52.034;5.342;2023-05-19T11:53:15;10.60;;;1.30;;
19280;SDS011;9774;52.034;5.342;2023-05-19T11:55:44;3.30;;;1.15;;
19280;SDS011;9774;52.034;5.342;2023-05-19T11:58:12;1.77;;;1.30;;
19280;SDS011;9774;52.034;5.342;2023-05-19T12:00:40;2.90;;;1.50;;
19280;SDS011;9774;52.034;5.342;2023-05-19T12:03:09;3.38;;;1.38;;
19280;SDS011;9774;52.034;5.342;2023-05-19T12:05:42;2.92;;;1.17;;
19280;SDS011;9774;52.034;5.342;2023-05-19T12:08:10;2.55;;;1.13;;
19280;SDS011;9774;52.034;5.342;2023-05-19T12:10:39;2.40;;;1.15;;
19280;SDS011;9774;52.034;5.342;2023-05-19T12:13:06;3.83;;;1.20;;
19280;SDS011;9774;52.034;5.342;2023-05-19T12:15:34;5.07;;;1.25;;
19280;SDS011;9774;52.034;5.342;2023-05-19T12:18:01;3.10;;;0.90;;
19280;SDS011;9774;52.034;5.342;2023-05-19T12:20:30;2.17;;;1.30;;
19280;SDS011;9774;52.034;5.342;2023-05-19T12:22:59;3.55;;;1.10;;
19280;SDS011;9774;52.034;5.342;2023-05-19T12:25:27;2.45;;;1.20;;
19280;SDS011;9774;52.034;5.342;2023-05-19T12:27:57;2.03;;;1.15;;
19280;SDS011;9774;52.034;5.342;2023-05-19T12:30:27;1.95;;;1.30;;
19280;SDS011;9774;52.034;5.342;2023-05-19T12:32:55;5.57;;;1.50;;
19280;SDS011;9774;52.034;5.342;2023-05-19T12:35:24;1.90;;;0.98;;
19280;SDS011;9774;52.034;5.342;2023-05-19T12:37:52;5.65;;;1.08;;
19280;SDS011;9774;52.034;5.342;2023-05-19T12:40:20;4.68;;;1.50;;
19280;SDS011;9774;52.034;5.342;2023-05-19T12:42:48;1.92;;;1.08;;
19280;SDS011;9774;52.034;5.342;2023-05-19T12:45:20;3.90;;;1.52;;
19280;SDS011;9774;52.034;5.342;2023-05-19T12:47:50;2.42;;;1.25;;
19280;SDS011;9774;52.034;5.342;2023-05-19T12:50:17;3.75;;;1.30;;
19280;SDS011;9774;52.034;5.342;2023-05-19T12:52:45;1.60;;;0.85;;
19280;SDS011;9774;52.034;5.342;2023-05-19T12:55:15;3.58;;;1.10;;
19280;SDS011;9774;52.034;5.342;2023-05-19T12:57:47;2.85;;;1.38;;
19280;SDS011;9774;52.034;5.342;2023-05-19T13:00:16;2.30;;;1.30;;
19280;SDS011;9774;52.034;5.342;2023-05-19T13:02:56;2.55;;;1.10;;
19280;SDS011;9774;52.034;5.342;2023-05-19T13:05:25;2.05;;;1.25;;
19280;SDS011;9774;52.034;5.342;2023-05-19T13:07:54;2.78;;;1.65;;
19280;SDS011;9774;52.034;5.342;2023-05-19T13:10:21;3.10;;;1.42;;
19280;SDS011;9774;52.034;5.342;2023-05-19T13:12:51;4.38;;;1.50;;
19280;SDS011;9774;52.034;5.342;2023-05-19T13:15:20;3.70;;;1.35;;
19280;SDS011;9774;52.034;5.342;2023-05-19T13:17:48;2.40;;;1.50;;
19280;SDS011;9774;52.034;5.342;2023-05-19T13:20:17;2.15;;;1.00;;
19280;SDS011;9774;52.034;5.342;2023-05-19T13:22:45;4.32;;;1.85;;
19280;SDS011;9774;52.034;5.342;2023-05-19T13:25:13;1.73;;;1.10;;
19280;SDS011;9774;52.034;5.342;2023-05-19T13:27:40;2.05;;;1.08;;
19280;SDS011;9774;52.034;5.342;2023-05-19T13:30:10;2.20;;;1.30;;
19280;SDS011;9774;52.034;5.342;2023-05-19T13:32:37;3.63;;;1.20;;
19280;SDS011;9774;52.034;5.342;2023-05-19T13:35:05;3.28;;;1.33;;
19280;SDS011;9774;52.034;5.342;2023-05-19T13:37:35;2.88;;;1.35;;
19280;SDS011;9774;52.034;5.342;2023-05-19T13:40:03;1.85;;;1.27;;
19280;SDS011;9774;52.034;5.342;2023-05-19T13:42:31;2.50;;;1.10;;
19280;SDS011;9774;52.034;5.342;2023-05-19T13:44:59;2.40;;;1.20;;
19280;SDS011;9774;52.034;5.342;2023-05-19T13:47:27;2.15;;;1.23;;
19280;SDS011;9774;52.034;5.342;2023-05-19T13:49:54;3.80;;;1.40;;
19280;SDS011;9774;52.034;5.342;2023-05-19T13:52:22;3.53;;;1.50;;
19280;SDS011;9774;52.034;5.342;2023-05-19T13:54:51;6.47;;;1.50;;
19280;SDS011;9774;52.034;5.342;2023-05-19T13:57:20;2.17;;;1.67;;
19280;SDS011;9774;52.034;5.342;2023-05-19T13:59:48;4.57;;;1.70;;
19280;SDS011;9774;52.034;5.342;2023-05-19T14:02:15;2.88;;;1.27;;
19280;SDS011;9774;52.034;5.342;2023-05-19T14:04:43;3.08;;;1.20;;
19280;SDS011;9774;52.034;5.342;2023-05-19T14:07:11;1.63;;;1.25;;
19280;SDS011;9774;52.034;5.342;2023-05-19T14:09:38;5.10;;;1.13;;
19280;SDS011;9774;52.034;5.342;2023-05-19T14:12:07;2.03;;;1.25;;
19280;SDS011;9774;52.034;5.342;2023-05-19T14:14:36;2.92;;;1.00;;
19280;SDS011;9774;52.034;5.342;2023-05-19T14:17:03;1.60;;;1.20;;
19280;SDS011;9774;52.034;5.342;2023-05-19T14:19:31;3.90;;;1.40;;
19280;SDS011;9774;52.034;5.342;2023-05-19T14:21:58;3.47;;;1.20;;
19280;SDS011;9774;52.034;5.342;2023-05-19T14:24:25;2.83;;;1.38;;
19280;SDS011;9774;52.034;5.342;2023-05-19T14:26:52;4.18;;;1.30;;
19280;SDS011;9774;52.034;5.342;2023-05-19T14:29:21;1.60;;;1.00;;
19280;SDS011;9774;52.034;5.342;2023-05-19T14:31:48;2.70;;;1.30;;
19280;SDS011;9774;52.034;5.342;2023-05-19T14:34:16;3.42;;;1.10;;
19280;SDS011;9774;52.034;5.342;2023-05-19T14:36:45;4.10;;;1.27;;
19280;SDS011;9774;52.034;5.342;2023-05-19T14:39:12;1.30;;;0.90;;
19280;SDS011;9774;52.034;5.342;2023-05-19T14:41:40;2.60;;;1.55;;
19280;SDS011;9774;52.034;5.342;2023-05-19T14:44:07;1.60;;;1.33;;
19280;SDS011;9774;52.034;5.342;2023-05-19T14:46:35;3.78;;;1.38;;
19280;SDS011;9774;52.034;5.342;2023-05-19T14:49:03;2.53;;;1.00;;
19280;SDS011;9774;52.034;5.342;2023-05-19T14:51:30;4.60;;;1.50;;
19280;SDS011;9774;52.034;5.342;2023-05-19T14:53:58;2.13;;;1.10;;
19280;SDS011;9774;52.034;5.342;2023-05-19T14:56:26;2.97;;;1.40;;
19280;SDS011;9774;52.034;5.342;2023-05-19T14:58:53;1.80;;;1.30;;
19280;SDS011;9774;52.034;5.342;2023-05-19T15:01:20;1.90;;;1.30;;
19280;SDS011;9774;52.034;5.342;2023-05-19T15:03:49;2.03;;;1.10;;
19280;SDS011;9774;52.034;5.342;2023-05-19T15:06:16;3.97;;;1.50;;
19280;SDS011;9774;52.034;5.342;2023-05-19T15:08:43;4.43;;;1.60;;
19280;SDS011;9774;52.034;5.342;2023-05-19T15:11:11;2.28;;;1.30;;